CYXS

Prince George Airport

Prince George, British Columbia, Canada
METAR CYXS 221700Z AUTO 04003KT 360V080 7SM CLR 16/08 A2996 RMK SLP158 DENSITY ALT 2800FT
Observed Flight Rules
May-22 @ 17:00 UTC (51 minutes ago) Visual Flight Rules
Wind Visibility Clouds
40° at 3 knots 7 miles
  • Clear skies
Temperatures Readings
Current 16°C / 61°F
Dewpoint 8°C / 46°F
Humidity 59%
Altimeter 29.96" Hg
Pressure 1015.8 hPa
Elevation 691
METAR CYXS 221700Z AUTO 04003KT 360V080 7SM CLR 16/08 A2996 RMK SLP158 DENSITY ALT 2800FT
Observed Flight Rules
May-22 @ 17:00 UTC
(51 minutes ago)
VFR
Wind Visibility
40° at 3 knots 7 miles
Clouds
  • Clear skies
Temperature Dewpoint
16°C / 61°F 8°C / 46°F
Humidity Altimeter Pressure
59% 29.96" Hg 1015.8 hPa